Time;durP1;ratioP1;P1;durP2;ratioP2;P2;SDS_P1;SDS_P2;PMS_P1;PMS_P2;Temp;Humidity;BMP_temperature;BMP_pressure;BME280_temperature;BME280_humidity;BME280_pressure;Samples;Min_cycle;Max_cycle;Signal;HPM_P1;HPM_P2
2021/12/13 00:01:44;;;;;;;29.55;19.42;;;;;;;9.92;97.77;102485.13;5116300;28;20096;-64
2021/12/13 00:04:18;;;;;;;27.92;18.42;;;;;;;9.89;97.53;102480.66;5115708;28;20031;-64
2021/12/13 00:06:49;;;;;;;31.90;18.95;;;;;;;9.89;97.58;102477.06;5115720;28;20041;-64
2021/12/13 00:09:19;;;;;;;30.08;18.60;;;;;;;9.87;97.48;102477.03;5115368;28;20028;-64
2021/12/13 00:11:54;;;;;;;28.25;18.20;;;;;;;9.87;97.54;102473.50;5115743;28;20077;-64
2021/12/13 00:14:33;;;;;;;27.17;17.55;;;;;;;9.85;97.29;102472.50;5115927;28;20472;-64
2021/12/13 00:17:04;;;;;;;29.95;18.60;;;;;;;9.83;97.23;102472.47;5115857;28;20058;-65
2021/12/13 00:19:37;;;;;;;27.67;17.88;;;;;;;9.82;97.19;102469.78;5115651;28;20051;-65
2021/12/13 00:22:08;;;;;;;25.23;17.08;;;;;;;9.82;97.33;102475.06;5115617;28;20027;-65
2021/12/13 00:24:39;;;;;;;24.90;17.63;;;;;;;9.81;97.17;102475.88;5115634;28;20373;-64
2021/12/13 00:27:12;;;;;;;25.38;17.25;;;;;;;9.79;97.10;102476.72;5115739;28;20105;-64
2021/12/13 00:30:06;;;;;;;26.63;17.50;;;;;;;9.78;97.46;102467.00;5115599;28;20097;-64
2021/12/13 00:32:41;;;;;;;24.10;16.70;;;;;;;9.80;97.00;102474.97;5115360;28;20034;-62
2021/12/13 00:35:12;;;;;;;25.90;16.15;;;;;;;9.79;97.03;102474.06;5115502;28;20027;-62
2021/12/13 00:37:42;;;;;;;24.00;16.17;;;;;;;9.76;97.04;102481.91;5115334;28;20089;-64
2021/12/13 00:40:13;;;;;;;26.30;17.23;;;;;;;9.76;96.74;102480.97;5115297;28;20019;-64
2021/12/13 00:42:53;;;;;;;24.85;17.27;;;;;;;9.73;96.71;102492.31;5115272;28;20052;-64
2021/12/13 00:45:22;;;;;;;26.73;16.42;;;;;;;9.71;96.88;102493.97;5115306;28;20391;-64
2021/12/13 00:47:47;;;;;;;29.25;17.98;;;;;;;9.69;96.70;102498.31;5115154;28;20028;-64
2021/12/13 00:50:46;;;;;;;24.42;16.25;;;;;;;9.71;96.89;102504.53;5115139;28;20156;-64
2021/12/13 00:53:17;;;;;;;25.98;15.32;;;;;;;9.69;96.68;102492.13;5114973;28;20033;-65
2021/12/13 00:55:44;;;;;;;22.25;14.70;;;;;;;9.68;96.85;102501.81;5114663;28;20131;-65
2021/12/13 00:58:14;;;;;;;22.83;15.57;;;;;;;9.65;97.18;102491.09;5114956;28;20110;-65
2021/12/13 01:00:52;;;;;;;27.05;16.13;;;;;;;9.66;96.94;102502.56;5114852;28;20058;-64
2021/12/13 01:03:32;;;;;;;24.80;14.70;;;;;;;9.66;97.04;102500.81;5114971;28;20031;-64
2021/12/13 01:06:48;;;;;;;25.73;16.00;;;;;;;9.63;96.87;102500.69;5114733;28;20019;-65
2021/12/13 01:09:51;;;;;;;26.48;16.20;;;;;;;9.64;97.14;102499.88;5114767;28;20032;-64
2021/12/13 01:12:19;;;;;;;26.35;15.50;;;;;;;9.60;96.74;102505.84;5114384;28;20035;-64
2021/12/13 01:14:58;;;;;;;29.38;17.15;;;;;;;9.56;96.99;102506.56;5114594;28;20024;-65
2021/12/13 01:17:53;;;;;;;27.85;16.52;;;;;;;9.57;96.87;102497.81;5114605;28;20035;-64
2021/12/13 01:20:41;;;;;;;30.48;16.73;;;;;;;9.54;96.64;102510.88;5114531;28;20089;-64
2021/12/13 01:23:15;;;;;;;26.58;16.52;;;;;;;9.54;96.61;102513.50;5096215;28;20034;-65
2021/12/13 01:26:13;;;;;;;29.90;16.65;;;;;;;9.52;96.75;102509.91;5114643;28;20035;-64
2021/12/13 01:28:44;;;;;;;29.42;16.75;;;;;;;9.51;96.80;102516.94;5114350;28;20054;-64
2021/12/13 01:31:14;;;;;;;24.75;15.98;;;;;;;9.48;96.78;102514.16;5114150;28;20031;-65
2021/12/13 01:33:45;;;;;;;28.95;16.10;;;;;;;9.48;96.89;102519.44;5114321;28;20526;-64
2021/12/13 01:36:22;;;;;;;26.33;16.50;;;;;;;9.48;96.72;102516.78;5113746;28;20042;-65
2021/12/13 01:38:52;;;;;;;30.80;17.63;;;;;;;9.47;96.68;102519.38;5114209;28;20028;-64
2021/12/13 01:41:24;;;;;;;31.13;15.98;;;;;;;9.45;96.49;102514.03;5114031;28;20081;-64
2021/12/13 01:43:55;;;;;;;28.83;17.17;;;;;;;9.47;96.86;102528.19;5114379;28;20062;-65
2021/12/13 01:46:23;;;;;;;30.08;16.58;;;;;;;9.46;96.65;102517.56;5095787;28;20027;-64
2021/12/13 01:48:52;;;;;;;30.70;16.95;;;;;;;9.48;96.57;102523.81;5114044;28;20028;-64
2021/12/13 01:51:22;;;;;;;33.72;17.75;;;;;;;9.47;96.57;102536.09;5114200;28;20384;-64
2021/12/13 01:53:53;;;;;;;27.88;16.48;;;;;;;9.45;96.56;102537.75;5113682;28;20464;-64
2021/12/13 01:59:40;;;;;;;29.45;17.10;;;;;;;9.43;96.69;102538.56;5114214;28;20040;-64
2021/12/13 02:02:21;;;;;;;32.22;18.67;;;;;;;9.44;96.65;102537.72;5113590;28;20031;-65
2021/12/13 02:04:57;;;;;;;30.63;16.95;;;;;;;9.43;96.66;102531.53;5113700;28;20027;-65
2021/12/13 02:07:27;;;;;;;33.95;19.40;;;;;;;9.43;96.55;102534.19;5095500;28;20024;-64
2021/12/13 02:09:56;;;;;;;33.53;19.75;;;;;;;9.43;96.96;102534.19;5113727;28;20110;-64
2021/12/13 02:12:29;;;;;;;29.27;18.42;;;;;;;9.46;96.63;102538.66;5113580;28;20031;-64
2021/12/13 02:17:46;;;;;;;34.60;18.73;;;;;;;9.41;96.26;102535.81;5113994;28;20070;-65
2021/12/13 02:20:19;;;;;;;29.55;16.40;;;;;;;9.43;96.45;102542.09;5113662;28;20051;-64
2021/12/13 02:22:45;;;;;;;34.80;18.52;;;;;;;9.40;96.30;102541.06;5113781;28;20023;-64
2021/12/13 02:25:32;;;;;;;28.95;17.50;;;;;;;9.41;96.62;102534.94;5113538;28;20028;-64
2021/12/13 02:28:09;;;;;;;33.42;19.10;;;;;;;9.40;96.37;102539.31;5113481;28;20030;-64
2021/12/13 02:30:37;;;;;;;26.80;17.13;;;;;;;9.39;96.30;102529.59;5113593;28;20100;-64
2021/12/13 02:33:07;;;;;;;28.80;18.15;;;;;;;9.41;96.34;102532.28;5113634;28;20059;-64
2021/12/13 02:35:39;;;;;;;31.05;18.10;;;;;;;9.37;96.00;102528.63;5113493;28;20023;-64
2021/12/13 02:38:07;;;;;;;32.88;19.40;;;;;;;9.37;96.31;102522.44;5113529;28;20016;-64
2021/12/13 02:40:33;;;;;;;31.52;19.27;;;;;;;9.36;96.45;102520.66;5113369;28;20027;-64
2021/12/13 02:42:59;;;;;;;32.58;18.83;;;;;;;9.35;96.30;102526.78;5113589;28;20027;-64
2021/12/13 02:45:32;;;;;;;34.78;18.88;;;;;;;9.34;96.41;102523.25;5113554;28;20024;-64
2021/12/13 02:48:24;;;;;;;29.45;18.40;;;;;;;9.34;96.60;102538.16;5117407;28;20028;-64
2021/12/13 02:51:10;;;;;;;29.70;18.52;;;;;;;9.32;96.07;102535.44;5014757;28;20040;-64
2021/12/13 02:53:45;;;;;;;33.95;18.75;;;;;;;9.29;96.32;102537.94;5014898;28;20064;-64
2021/12/13 02:56:12;;;;;;;33.75;19.33;;;;;;;9.28;96.26;102537.03;5014834;28;20052;-65
2021/12/13 02:58:40;;;;;;;31.42;18.40;;;;;;;9.26;96.35;102538.72;5014811;28;20121;-64
2021/12/13 03:01:22;;;;;;;34.53;18.73;;;;;;;9.28;96.34;102536.16;5014965;28;20057;-64
2021/12/13 03:03:51;;;;;;;30.80;19.67;;;;;;;9.25;96.39;102534.28;5014781;28;20038;-64
2021/12/13 03:06:21;;;;;;;31.15;18.60;;;;;;;9.25;96.57;102536.94;5014729;28;20061;-64
2021/12/13 03:08:51;;;;;;;33.83;18.83;;;;;;;9.23;96.52;102535.06;5014627;28;20041;-64
2021/12/13 03:11:25;;;;;;;34.42;18.65;;;;;;;9.23;96.30;102532.41;5014441;28;20384;-64
2021/12/13 03:13:56;;;;;;;30.65;18.38;;;;;;;9.22;96.37;102533.25;5014525;28;20030;-65
2021/12/13 03:16:28;;;;;;;33.38;18.55;;;;;;;9.20;96.62;102524.34;5014533;28;20030;-64
2021/12/13 03:19:03;;;;;;;33.30;19.75;;;;;;;9.19;96.52;102523.47;5014515;28;20030;-64
2021/12/13 03:21:50;;;;;;;31.17;18.48;;;;;;;9.18;96.66;102526.94;5014395;28;20100;-65
2021/12/13 03:24:36;;;;;;;30.73;18.48;;;;;;;9.17;96.60;102533.06;5014427;28;20029;-64
2021/12/13 03:27:04;;;;;;;31.10;17.75;;;;;;;9.19;96.45;102535.75;5033941;28;20067;-64
2021/12/13 03:29:42;;;;;;;32.63;19.02;;;;;;;9.18;96.60;102536.59;5116656;28;20560;-64
2021/12/13 03:32:12;;;;;;;37.03;18.83;;;;;;;9.18;96.66;102541.88;5116930;28;20123;-64
2021/12/13 03:34:43;;;;;;;34.13;18.83;;;;;;;9.16;96.42;102543.53;5116730;28;20028;-64
2021/12/13 03:37:17;;;;;;;34.53;19.20;;;;;;;9.15;96.40;102545.25;5098276;28;20020;-65
2021/12/13 03:39:46;;;;;;;32.40;18.80;;;;;;;9.16;96.52;102543.53;5116637;28;20023;-64
2021/12/13 03:42:20;;;;;;;30.55;18.10;;;;;;;9.16;96.30;102543.53;5116341;28;20085;-65
2021/12/13 03:44:51;;;;;;;31.77;18.63;;;;;;;9.16;96.24;102546.16;5116496;28;20036;-64
2021/12/13 03:47:24;;;;;;;34.40;19.92;;;;;;;9.14;96.40;102543.47;5116398;28;20038;-64
2021/12/13 03:49:55;;;;;;;32.83;18.58;;;;;;;9.13;95.94;102533.75;5116560;28;20032;-64
2021/12/13 03:52:23;;;;;;;34.47;19.02;;;;;;;9.10;96.51;102538.00;5116216;28;20059;-64
2021/12/13 03:54:52;;;;;;;36.42;19.55;;;;;;;9.01;96.38;102522.66;5115891;28;20039;-64
2021/12/13 03:57:19;;;;;;;32.08;19.58;;;;;;;9.07;96.51;102546.66;5114887;28;20035;-64
2021/12/13 03:59:46;;;;;;;31.70;18.25;;;;;;;9.08;96.47;102550.19;5116111;28;20420;-64
2021/12/13 04:02:25;;;;;;;34.70;19.30;;;;;;;9.07;96.56;102541.38;5116009;28;20464;-65
2021/12/13 04:04:55;;;;;;;34.00;18.98;;;;;;;9.07;96.26;102540.47;5115902;28;20031;-64
2021/12/13 04:07:25;;;;;;;33.78;19.10;;;;;;;9.05;96.34;102532.53;5116024;28;20023;-64
2021/12/13 04:09:59;;;;;;;33.75;19.00;;;;;;;9.06;96.53;102543.97;5115949;28;20024;-64
2021/12/13 04:12:37;;;;;;;36.95;19.73;;;;;;;9.03;96.58;102537.69;5115821;28;20080;-64
2021/12/13 04:15:15;;;;;;;36.10;18.83;;;;;;;9.05;96.61;102539.53;5115793;28;20511;-64
2021/12/13 04:17:58;;;;;;;35.35;18.48;;;;;;;9.02;96.51;102540.28;5115838;28;20388;-64
2021/12/13 04:20:28;;;;;;;34.63;19.38;;;;;;;9.03;96.16;102542.97;5115835;28;20431;-64
2021/12/13 04:22:58;;;;;;;31.33;18.75;;;;;;;9.02;96.15;102542.91;5115869;28;20032;-64
2021/12/13 04:25:31;;;;;;;30.48;17.60;;;;;;;9.00;96.40;102541.97;5115473;28;20107;-64
2021/12/13 04:28:11;;;;;;;34.78;18.50;;;;;;;9.02;96.48;102540.28;5115598;28;20027;-64
2021/12/13 04:30:46;;;;;;;32.55;18.20;;;;;;;9.01;96.21;102541.13;5115488;28;20031;-64
2021/12/13 04:33:24;;;;;;;36.63;19.63;;;;;;;9.01;95.93;102549.94;5097238;28;20392;-64
2021/12/13 04:35:53;;;;;;;33.50;17.80;;;;;;;9.01;96.21;102543.75;5115268;28;20031;-65
2021/12/13 04:38:23;;;;;;;33.65;17.35;;;;;;;9.01;96.33;102547.28;5115411;28;20034;-64
2021/12/13 04:40:52;;;;;;;36.80;17.85;;;;;;;9.01;96.10;102560.47;5115418;28;20067;-64
2021/12/13 04:43:20;;;;;;;28.70;16.95;;;;;;;9.01;95.81;102559.59;5115372;28;20027;-64
2021/12/13 04:45:54;;;;;;;33.35;17.55;;;;;;;9.00;95.99;102553.41;5115591;28;20030;-64
2021/12/13 04:48:23;;;;;;;30.00;17.77;;;;;;;8.99;96.02;102543.72;5115211;28;20361;-65
2021/12/13 04:50:56;;;;;;;34.00;17.55;;;;;;;9.02;96.01;102549.09;5115073;28;20055;-64
2021/12/13 04:53:29;;;;;;;32.25;17.23;;;;;;;9.03;96.26;102547.34;5115142;28;20019;-64
2021/12/13 04:55:58;;;;;;;28.45;16.38;;;;;;;9.02;95.67;102550.84;5092225;28;20445;-64
2021/12/13 04:58:25;;;;;;;26.55;16.10;;;;;;;9.02;95.78;102543.81;5094708;28;20043;-64
2021/12/13 05:00:55;;;;;;;31.92;17.23;;;;;;;9.02;95.82;102543.81;5094725;28;20032;-64
2021/12/13 05:03:25;;;;;;;33.50;17.25;;;;;;;9.02;96.00;102541.19;5094171;28;20028;-64
2021/12/13 05:05:51;;;;;;;30.00;15.88;;;;;;;9.06;95.58;102539.59;5093914;28;20115;-63
2021/12/13 05:08:18;;;;;;;31.73;16.48;;;;;;;9.05;95.14;102543.06;5093924;28;20441;-64
2021/12/13 05:10:48;;;;;;;31.83;17.98;;;;;;;9.04;95.60;102543.91;5092634;28;20056;-64
2021/12/13 05:13:22;;;;;;;30.70;15.80;;;;;;;9.05;95.69;102543.06;5094470;28;20163;-64
2021/12/13 05:16:00;;;;;;;30.85;16.35;;;;;;;9.05;95.25;102547.44;5094204;28;20016;-64
2021/12/13 05:18:30;;;;;;;26.27;16.15;;;;;;;9.06;95.22;102551.88;5094332;28;20380;-64
2021/12/13 05:21:08;;;;;;;28.90;15.75;;;;;;;9.02;95.09;102554.38;5094216;28;20032;-64
2021/12/13 05:23:45;;;;;;;26.75;14.93;;;;;;;9.05;95.31;102560.63;5094400;28;20020;-64
2021/12/13 05:26:39;;;;;;;30.85;16.08;;;;;;;9.05;95.23;102547.44;5093864;28;20020;-64
2021/12/13 05:29:19;;;;;;;25.63;14.02;;;;;;;9.02;95.04;102557.00;5094153;28;20070;-64
2021/12/13 05:31:51;;;;;;;30.25;15.27;;;;;;;9.00;94.69;102548.13;5093996;28;20024;-64
2021/12/13 05:34:18;;;;;;;26.88;14.50;;;;;;;9.00;94.96;102545.50;5094030;28;20111;-64
2021/12/13 05:36:54;;;;;;;26.85;14.73;;;;;;;9.00;94.67;102553.41;5093835;28;20020;-65
2021/12/13 05:39:20;;;;;;;26.50;14.52;;;;;;;8.99;94.75;102550.69;5093795;28;20028;-64
2021/12/13 05:42:01;;;;;;;23.45;13.75;;;;;;;8.98;94.79;102548.88;5092558;28;20113;-64
2021/12/13 05:44:33;;;;;;;24.85;14.73;;;;;;;8.99;94.93;102558.59;5093905;28;20103;-64
2021/12/13 05:47:02;;;;;;;23.98;13.90;;;;;;;8.99;94.79;102556.88;5093741;28;20449;-64
2021/12/13 05:49:33;;;;;;;27.13;14.85;;;;;;;8.97;94.94;102558.53;5093614;28;20028;-64
2021/12/13 05:52:24;;;;;;;33.65;15.07;;;;;;;8.98;94.60;102549.78;5093833;28;20067;-64
2021/12/13 05:54:54;;;;;;;24.38;13.68;;;;;;;8.97;94.71;102550.63;5101261;28;20052;-65
2021/12/13 05:57:19;;;;;;;24.65;13.70;;;;;;;8.97;94.15;102552.38;5095583;28;20055;-64
2021/12/13 05:59:50;;;;;;;28.95;14.43;;;;;;;8.95;94.47;102554.94;5113768;28;20028;-65
2021/12/13 06:02:38;;;;;;;23.80;13.52;;;;;;;8.94;94.32;102555.75;5113844;28;20054;-64
2021/12/13 06:05:16;;;;;;;24.58;14.20;;;;;;;8.92;94.93;102561.81;5114156;28;20035;-64
2021/12/13 06:07:54;;;;;;;22.98;13.27;;;;;;;8.90;94.30;102555.56;5113951;28;20024;-64
2021/12/13 06:10:21;;;;;;;26.30;12.70;;;;;;;8.92;94.20;102564.44;5113481;28;20495;-65
2021/12/13 06:12:53;;;;;;;24.00;13.55;;;;;;;8.88;94.69;102555.50;5113575;28;20032;-64
2021/12/13 06:15:33;;;;;;;27.90;13.45;;;;;;;8.92;94.41;102560.06;5113777;28;20024;-65
2021/12/13 06:18:23;;;;;;;20.75;12.20;;;;;;;8.90;94.30;102559.09;5113798;28;20028;-64
2021/12/13 06:21:22;;;;;;;20.02;11.93;;;;;;;8.92;94.03;102567.09;5113165;28;20480;-64
2021/12/13 06:23:48;;;;;;;24.88;12.55;;;;;;;8.89;94.40;102565.19;5113564;28;20369;-65
2021/12/13 06:26:14;;;;;;;23.50;12.75;;;;;;;8.91;94.41;102563.56;5113477;28;20528;-65
2021/12/13 06:28:52;;;;;;;21.40;12.70;;;;;;;8.89;94.19;102569.56;5113475;28;20023;-65
2021/12/13 06:31:21;;;;;;;20.25;12.25;;;;;;;8.88;94.16;102576.59;5113578;28;20098;-65
2021/12/13 06:33:51;;;;;;;22.10;12.68;;;;;;;8.90;93.80;102577.53;5113482;28;20081;-64
2021/12/13 06:36:32;;;;;;;21.13;12.45;;;;;;;8.92;94.21;102572.34;5113669;28;20028;-64
2021/12/13 06:39:23;;;;;;;20.70;11.90;;;;;;;8.92;93.99;102575.00;5113445;28;20058;-64
2021/12/13 06:41:58;;;;;;;22.25;13.25;;;;;;;8.89;94.31;102574.84;5010794;28;20038;-64
2021/12/13 06:44:34;;;;;;;28.08;13.00;;;;;;;8.90;94.09;102588.09;5011136;28;20096;-64
2021/12/13 06:47:15;;;;;;;18.42;10.90;;;;;;;8.89;93.87;102582.75;5011105;28;20041;-64
2021/12/13 06:49:49;;;;;;;19.38;12.35;;;;;;;8.92;93.65;102594.34;5010972;28;20034;-64
2021/12/13 06:52:23;;;;;;;23.95;13.05;;;;;;;8.91;93.89;102589.00;5010760;28;20525;-65
2021/12/13 06:54:55;;;;;;;20.65;12.32;;;;;;;8.90;93.55;102590.72;5010747;28;20520;-64
2021/12/13 06:57:54;;;;;;;18.70;10.93;;;;;;;8.89;93.67;102586.28;5010896;28;20037;-64
2021/12/13 07:00:19;;;;;;;25.75;13.10;;;;;;;8.86;93.74;102594.03;5010944;28;20037;-64
2021/12/13 07:02:50;;;;;;;21.20;13.20;;;;;;;8.87;93.82;102595.88;5010872;28;20168;-65
2021/12/13 07:05:31;;;;;;;19.10;11.73;;;;;;;8.87;93.86;102600.25;5010944;28;20038;-64
2021/12/13 07:08:04;;;;;;;23.13;13.23;;;;;;;8.86;93.80;102595.78;5010924;28;20072;-64
2021/12/13 07:10:38;;;;;;;23.25;12.43;;;;;;;8.84;93.71;102597.47;5010747;28;20030;-65
2021/12/13 07:13:30;;;;;;;22.73;12.90;;;;;;;8.84;93.86;102601.00;5010792;28;20052;-64
2021/12/13 07:16:11;;;;;;;22.35;12.85;;;;;;;8.86;94.03;102596.69;5003273;28;20045;-64
2021/12/13 07:19:03;;;;;;;22.90;12.25;;;;;;;8.88;93.93;102609.97;5047043;28;20047;-64
2021/12/13 07:21:30;;;;;;;22.27;11.95;;;;;;;8.85;93.58;102601.91;5092723;28;20366;-64
2021/12/13 07:24:00;;;;;;;23.05;12.63;;;;;;;8.84;93.72;102603.63;5092580;28;20073;-64
2021/12/13 07:26:34;;;;;;;23.88;13.63;;;;;;;8.83;93.80;102607.13;5092670;28;20024;-64
2021/12/13 07:29:03;;;;;;;22.50;12.93;;;;;;;8.83;93.72;102603.56;5092701;28;20031;-64
2021/12/13 07:31:32;;;;;;;20.65;13.30;;;;;;;8.83;94.20;102606.22;5092581;28;20027;-64
2021/12/13 07:34:14;;;;;;;21.67;13.07;;;;;;;8.83;93.89;102612.38;5095131;28;20396;-64
2021/12/13 07:36:40;;;;;;;23.70;13.43;;;;;;;8.82;94.27;102607.91;5096201;28;20028;-64
2021/12/13 07:39:14;;;;;;;21.60;12.77;;;;;;;8.82;93.92;102609.66;5096225;28;20028;-64
2021/12/13 07:42:02;;;;;;;21.25;13.18;;;;;;;8.82;93.81;102612.28;5095796;28;20048;-64
2021/12/13 07:44:30;;;;;;;24.70;12.10;;;;;;;8.82;94.06;102614.94;5096287;28;20087;-64
2021/12/13 07:47:17;;;;;;;20.70;12.00;;;;;;;8.83;94.29;102608.84;5095760;28;20030;-64
2021/12/13 07:49:48;;;;;;;20.77;12.82;;;;;;;8.82;93.85;102614.94;5095575;28;20047;-64
2021/12/13 07:52:32;;;;;;;21.10;13.07;;;;;;;8.84;94.35;102629.09;5095342;28;20472;-65
2021/12/13 07:55:22;;;;;;;19.90;12.15;;;;;;;8.84;93.81;102630.00;5103296;28;20138;-64
2021/12/13 07:57:49;;;;;;;19.65;12.35;;;;;;;8.83;93.83;102633.47;5115704;28;20022;-64
2021/12/13 08:00:27;;;;;;;20.73;13.52;;;;;;;8.85;93.69;102641.44;5115734;28;20035;-64
2021/12/13 08:03:14;;;;;;;18.85;12.25;;;;;;;8.85;93.89;102629.16;5115683;28;20036;-64
2021/12/13 08:05:51;;;;;;;24.30;12.82;;;;;;;8.83;94.02;102636.09;5115825;28;20019;-64
2021/12/13 08:08:22;;;;;;;18.48;11.73;;;;;;;8.82;93.82;102636.91;5097258;28;20027;-64
2021/12/13 08:10:50;;;;;;;22.75;13.27;;;;;;;8.86;93.53;102637.97;5115419;28;20191;-65
2021/12/13 08:13:20;;;;;;;19.98;12.00;;;;;;;8.86;93.98;102635.31;5115441;28;20055;-64
2021/12/13 08:15:54;;;;;;;19.63;11.68;;;;;;;8.85;93.82;102633.53;5115466;28;20491;-64
2021/12/13 08:18:35;;;;;;;21.45;10.95;;;;;;;8.86;93.93;102636.22;5115352;28;20080;-65
2021/12/13 08:21:09;;;;;;;20.15;12.38;;;;;;;8.88;94.06;102638.94;5115310;28;20484;-64
2021/12/13 08:23:41;;;;;;;19.13;12.15;;;;;;;8.91;93.55;102633.84;5115446;28;20034;-64
2021/12/13 08:26:12;;;;;;;17.33;11.00;;;;;;;8.92;93.31;102643.53;5115231;28;20020;-64
2021/12/13 08:28:43;;;;;;;17.90;10.98;;;;;;;8.91;93.38;102641.75;5115168;28;20079;-64
2021/12/13 08:31:18;;;;;;;16.65;10.98;;;;;;;8.93;93.41;102637.44;5114973;28;20039;-65
2021/12/13 08:33:49;;;;;;;17.73;11.20;;;;;;;8.90;93.24;102632.00;5114939;28;20056;-64
2021/12/13 08:36:15;;;;;;;17.10;11.15;;;;;;;8.92;93.15;102635.63;5115112;28;20110;-64
2021/12/13 08:38:48;;;;;;;13.73;9.48;;;;;;;8.91;92.95;102632.09;5115093;28;20168;-64
2021/12/13 08:41:48;;;;;;;15.73;9.85;;;;;;;8.89;93.28;102631.09;5114829;28;20032;-65
2021/12/13 08:44:19;;;;;;;17.08;10.57;;;;;;;8.90;93.32;102638.19;5114493;28;20032;-65
2021/12/13 08:46:57;;;;;;;15.38;10.40;;;;;;;8.92;93.06;102638.28;5114697;28;20027;-64
2021/12/13 08:49:25;;;;;;;18.05;10.05;;;;;;;8.92;92.77;102636.53;5114709;28;20024;-64
2021/12/13 08:52:03;;;;;;;16.42;10.27;;;;;;;8.93;92.69;102642.69;5114555;28;20457;-64
2021/12/13 08:54:46;;;;;;;14.40;10.35;;;;;;;8.93;93.04;102640.06;5114165;28;20035;-64
2021/12/13 08:57:45;;;;;;;22.05;10.23;;;;;;;8.93;92.80;102646.22;5114425;28;20051;-63
2021/12/13 09:00:13;;;;;;;17.52;9.95;;;;;;;8.94;92.52;102642.75;5012151;28;20095;-65
2021/12/13 09:02:44;;;;;;;17.50;10.65;;;;;;;8.94;92.64;102636.59;5011839;28;20053;-65
2021/12/13 09:05:14;;;;;;;17.65;9.35;;;;;;;8.94;92.53;102636.59;5011946;28;20079;-65
2021/12/13 09:08:24;;;;;;;13.70;9.25;;;;;;;8.86;92.37;102616.88;5011958;28;20041;-65
2021/12/13 09:11:00;;;;;;;14.38;8.82;;;;;;;8.94;92.07;102640.13;4972587;28;20043;-64
2021/12/13 09:13:44;;;;;;;17.40;10.98;;;;;;;8.97;92.72;102642.91;4972668;28;20046;-64
2021/12/13 09:16:19;;;;;;;14.98;9.10;;;;;;;8.96;92.53;102645.50;4972892;28;20035;-65
2021/12/13 09:18:45;;;;;;;16.10;9.07;;;;;;;8.96;92.20;102648.13;4956610;28;20070;-65
2021/12/13 09:21:17;;;;;;;14.70;9.65;;;;;;;8.95;92.42;102647.22;4972697;28;20090;-64
2021/12/13 09:23:48;;;;;;;14.73;8.73;;;;;;;8.97;92.19;102649.91;4972571;28;20114;-64
2021/12/13 09:26:20;;;;;;;14.30;8.77;;;;;;;8.98;91.94;102655.25;4972530;28;20034;-64
2021/12/13 09:29:02;;;;;;;14.05;8.75;;;;;;;9.00;92.31;102657.97;4956363;28;20507;-64
2021/12/13 09:31:32;;;;;;;13.00;8.82;;;;;;;8.99;91.93;102657.09;4972572;28;20453;-64
2021/12/13 09:34:08;;;;;;;14.80;8.38;;;;;;;9.00;91.64;102672.06;4972223;28;20566;-65
2021/12/13 09:36:37;;;;;;;13.20;8.82;;;;;;;9.00;91.82;102669.44;4974000;28;20041;-64
2021/12/13 09:39:17;;;;;;;14.07;9.18;;;;;;;9.00;91.96;102668.53;5031163;28;20454;-64
2021/12/13 09:41:46;;;;;;;14.40;9.18;;;;;;;9.00;91.71;102679.06;5080185;28;20488;-65
2021/12/13 09:44:11;;;;;;;13.38;8.68;;;;;;;9.00;91.79;102685.25;5113761;28;20122;-64
2021/12/13 09:46:45;;;;;;;15.13;8.90;;;;;;;9.01;91.69;102696.69;5113371;28;20480;-65
2021/12/13 09:49:35;;;;;;;13.70;8.70;;;;;;;9.00;91.85;102703.72;5113842;28;20073;-64
2021/12/13 09:52:00;;;;;;;12.90;8.63;;;;;;;9.03;91.65;102706.47;5113448;28;20080;-64
2021/12/13 09:54:34;;;;;;;13.88;7.85;;;;;;;9.02;91.22;102715.22;5113577;28;20043;-65
2021/12/13 09:57:04;;;;;;;15.00;8.13;;;;;;;9.05;91.24;102717.09;5112875;28;20031;-65
2021/12/13 09:59:36;;;;;;;12.00;7.78;;;;;;;9.05;91.46;102714.47;5113445;28;20085;-65
2021/12/13 10:02:07;;;;;;;12.90;7.70;;;;;;;9.05;90.94;102719.75;5113439;28;20078;-64
2021/12/13 10:04:40;;;;;;;13.23;7.88;;;;;;;9.05;91.24;102724.13;5113534;28;20028;-64
2021/12/13 10:07:20;;;;;;;12.82;7.88;;;;;;;9.06;91.38;102716.25;5113335;28;20094;-64
2021/12/13 10:09:53;;;;;;;12.25;7.80;;;;;;;9.07;91.28;102719.81;5112816;28;20031;-65
2021/12/13 10:12:28;;;;;;;11.75;7.78;;;;;;;9.07;91.28;102717.16;5112851;28;20132;-63
2021/12/13 10:15:00;;;;;;;11.18;7.65;;;;;;;9.06;90.79;102713.63;5113134;28;20024;-64
2021/12/13 10:17:30;;;;;;;12.73;7.35;;;;;;;9.03;91.10;102710.84;5113403;28;20058;-64
2021/12/13 10:19:59;;;;;;;10.43;7.35;;;;;;;9.00;91.04;102695.78;5113162;28;20443;-64
2021/12/13 10:22:30;;;;;;;14.02;7.15;;;;;;;9.05;91.05;102709.19;5113245;28;20031;-65
2021/12/13 10:25:35;;;;;;;10.13;6.78;;;;;;;9.07;90.75;102714.53;5113216;28;20520;-65
2021/12/13 10:28:09;;;;;;;9.32;6.75;;;;;;;9.07;90.52;102706.63;5113030;28;20027;-65
2021/12/13 10:30:43;;;;;;;9.85;6.05;;;;;;;9.05;90.62;102710.94;5112868;28;20023;-64
2021/12/13 10:33:10;;;;;;;9.43;6.43;;;;;;;9.03;90.86;102706.47;5112990;28;20509;-64
2021/12/13 10:35:39;;;;;;;7.97;5.95;;;;;;;9.03;90.57;102689.75;5112993;28;20101;-64
2021/12/13 10:38:16;;;;;;;10.80;6.32;;;;;;;9.03;90.54;102693.28;5112896;28;20559;-64
2021/12/13 10:40:51;;;;;;;10.80;6.28;;;;;;;9.03;90.37;102688.00;5112869;28;20031;-64
2021/12/13 10:43:30;;;;;;;8.38;5.90;;;;;;;9.06;90.87;102686.34;5094571;28;20031;-65
2021/12/13 10:46:11;;;;;;;9.77;6.20;;;;;;;9.05;90.53;102687.19;5112891;28;20072;-64
2021/12/13 10:48:46;;;;;;;8.13;5.93;;;;;;;9.05;90.16;102690.72;5112876;28;20136;-64
2021/12/13 10:51:24;;;;;;;10.32;5.47;;;;;;;9.07;90.28;102698.69;5094392;28;20076;-65
2021/12/13 10:53:52;;;;;;;11.10;6.40;;;;;;;9.07;90.13;102694.34;5094498;28;20433;-64
2021/12/13 10:56:32;;;;;;;10.95;6.05;;;;;;;9.00;89.83;102681.72;5112447;28;20040;-64
2021/12/13 10:59:03;;;;;;;8.52;5.78;;;;;;;9.08;89.69;102693.53;5112908;28;20027;-64
2021/12/13 11:01:35;;;;;;;7.10;5.43;;;;;;;9.09;89.43;102689.16;5112739;28;20067;-64
2021/12/13 11:04:06;;;;;;;8.70;5.60;;;;;;;9.05;89.77;102685.47;5112955;28;20085;-64
2021/12/13 11:06:33;;;;;;;6.43;4.90;;;;;;;9.09;89.57;102687.41;5112863;28;20020;-64
2021/12/13 11:08:59;;;;;;;9.57;5.47;;;;;;;9.09;89.87;102689.16;5116700;28;20030;-64
2021/12/13 11:11:49;;;;;;;7.38;5.10;;;;;;;9.11;89.45;102683.09;5116601;28;20031;-64
2021/12/13 11:14:20;;;;;;;9.05;5.68;;;;;;;9.11;89.32;102680.44;5116438;28;20075;-64
2021/12/13 11:16:50;;;;;;;7.78;5.55;;;;;;;9.10;89.35;102676.03;5116488;28;20027;-64
2021/12/13 11:19:19;;;;;;;6.57;5.15;;;;;;;9.13;88.66;102677.91;5116267;28;20070;-64
2021/12/13 11:21:49;;;;;;;8.77;5.50;;;;;;;9.13;88.93;102681.44;5116384;28;20488;-64
2021/12/13 11:24:19;;;;;;;8.80;5.53;;;;;;;9.13;88.96;102675.28;5098056;28;20051;-64
2021/12/13 11:26:49;;;;;;;8.45;5.60;;;;;;;9.13;89.11;102675.28;5116298;28;20028;-64
2021/12/13 11:29:16;;;;;;;9.00;5.32;;;;;;;9.17;89.02;102677.22;5116232;28;20028;-64
2021/12/13 11:31:53;;;;;;;7.35;4.75;;;;;;;9.18;89.11;102685.19;5116103;28;20023;-64
2021/12/13 11:34:56;;;;;;;8.70;5.40;;;;;;;9.18;89.19;102682.56;5116503;28;20028;-64
2021/12/13 11:37:59;;;;;;;8.23;4.82;;;;;;;9.20;88.23;102693.16;5116186;28;20099;-64
2021/12/13 11:40:43;;;;;;;;;;;;;;;9.21;88.63;102673.88;5116560;28;20031;-64
2021/12/13 11:43:55;;;;;;;7.53;4.72;;;;;;;9.21;88.32;102680.06;5115962;28;19912;-64
2021/12/13 11:46:53;;;;;;;6.97;4.75;;;;;;;9.21;87.67;102676.53;5115897;28;20031;-64
2021/12/13 11:49:39;;;;;;;6.88;4.70;;;;;;;9.20;88.17;102669.41;5013320;28;20135;-63
2021/12/13 11:52:36;;;;;;;6.95;4.68;;;;;;;9.21;88.03;102679.16;5013387;28;20064;-64
2021/12/13 11:55:23;;;;;;;7.53;5.00;;;;;;;9.22;88.30;102675.69;5013231;28;20125;-64
2021/12/13 11:58:06;;;;;;;8.60;5.07;;;;;;;9.21;88.16;102681.81;5013186;28;20029;-65
2021/12/13 12:01:09;;;;;;;7.97;5.35;;;;;;;9.22;88.38;102671.31;5013334;28;20080;-64
2021/12/13 12:04:12;;;;;;;11.70;5.05;;;;;;;9.23;88.24;102674.84;5013240;28;20041;-64